Time;durP1;ratioP1;P1;durP2;ratioP2;P2;SDS_P1;SDS_P2;PMS_P1;PMS_P2;Temp;Humidity;BMP_temperature;BMP_pressure;BME280_temperature;BME280_humidity;BME280_pressure;Samples;Min_cycle;Max_cycle;Signal;HPM_P1;HPM_P2
2023/01/14 00:02:14;;;;;;;;;9.33;2.67;;;;;10.56;68.12;101302.84;5107626;27;45499;-60
2023/01/14 00:04:41;;;;;;;;;8.00;3.67;;;;;10.53;68.37;101300.28;5112434;27;45489;-59
2023/01/14 00:07:06;;;;;;;;;5.00;3.00;;;;;10.57;68.48;101285.94;5077477;27;45363;-60
2023/01/14 00:09:32;;;;;;;;;7.25;1.75;;;;;10.48;69.33;101277.50;5078728;27;45636;-58
2023/01/14 00:11:58;;;;;;;;;3.67;2.00;;;;;10.58;68.68;101284.16;5120393;27;45556;-59
2023/01/14 00:14:29;;;;;;;;;3.67;2.00;;;;;10.56;69.43;101286.03;5119543;27;45972;-60
2023/01/14 00:16:56;;;;;;;;;1.50;1.50;;;;;10.50;69.89;101271.19;5095596;27;45398;-59
2023/01/14 00:19:22;;;;;;;;;6.75;2.75;;;;;10.62;69.93;101275.94;5078358;27;45416;-58
2023/01/14 00:21:49;;;;;;;;;6.00;1.00;;;;;10.66;69.55;101273.16;5081323;27;45607;-61
2023/01/14 00:24:19;;;;;;;;;6.50;3.00;;;;;10.59;71.03;101260.13;5077697;27;47705;-59
2023/01/14 00:26:48;;;;;;;;;6.67;2.00;;;;;10.64;70.47;101263.44;5078022;27;45172;-59
2023/01/14 00:29:18;;;;;;;;;2.00;2.00;;;;;10.59;71.62;101248.63;5078462;28;45330;-59
2023/01/14 00:31:45;;;;;;;;;3.00;2.00;;;;;10.67;71.00;101256.25;5076810;27;45209;-58
2023/01/14 00:34:11;;;;;;;;;2.00;2.00;;;;;10.63;70.80;101231.59;5112904;27;46389;-60
2023/01/14 00:36:36;;;;;;;;;2.00;2.00;;;;;10.72;70.78;101251.59;5088405;27;45331;-59
2023/01/14 00:39:02;;;;;;;;;1.75;1.75;;;;;10.72;71.01;101246.28;5086885;27;45503;-59
2023/01/14 00:41:27;;;;;;;;;2.00;2.00;;;;;10.77;71.93;101241.59;5098802;27;45594;-59
2023/01/14 00:43:55;;;;;;;;;4.25;2.00;;;;;10.78;73.31;101232.69;5100499;27;45540;-61
2023/01/14 00:46:24;;;;;;;;;1.75;1.50;;;;;10.75;74.77;101232.81;5118922;27;45281;-60
2023/01/14 00:48:49;;;;;;;;;6.25;5.75;;;;;10.75;75.28;101238.16;5105930;27;45703;-60
2023/01/14 00:51:18;;;;;;;;;1.25;1.00;;;;;10.73;75.91;101227.59;5077909;27;45636;-60
2023/01/14 00:53:45;;;;;;;;;3.00;3.00;;;;;10.54;76.20;101192.97;5080897;27;45558;-60
2023/01/14 00:56:11;;;;;;;;;5.00;2.50;;;;;10.65;76.58;101208.44;5088548;27;45502;-59
2023/01/14 00:58:37;;;;;;;;;7.00;2.75;;;;;10.66;77.57;101206.63;5077715;27;45444;-60
2023/01/14 01:01:03;;;;;;;;;2.00;2.00;;;;;10.63;77.91;101203.19;5078807;27;45318;-59
2023/01/14 01:03:28;;;;;;;;;2.00;1.50;;;;;10.48;77.96;101174.66;5112658;27;46192;-59
2023/01/14 01:05:54;;;;;;;;;6.00;2.25;;;;;10.56;78.89;101196.44;5093444;27;45391;-60
2023/01/14 01:08:21;;;;;;;;;1.00;1.00;;;;;10.52;79.16;101200.16;5098610;27;45383;-60
2023/01/14 01:10:50;;;;;;;;;2.25;1.75;;;;;10.49;78.75;101192.34;5087518;27;45397;-60
2023/01/14 01:13:17;;;;;;;;;2.75;2.75;;;;;10.43;78.50;101175.81;5077092;27;45463;-60
2023/01/14 01:15:43;;;;;;;;;3.50;3.50;;;;;10.44;78.12;101170.44;5082826;27;45378;-59
2023/01/14 01:18:11;;;;;;;;;4.25;2.50;;;;;10.44;78.88;101162.44;5097868;27;45259;-59
2023/01/14 01:20:37;;;;;;;;;7.00;3.00;;;;;10.50;78.08;101162.16;5077802;27;45334;-60
2023/01/14 01:23:04;;;;;;;;;4.25;3.50;;;;;10.49;78.17;101164.88;5077451;27;46049;-59
2023/01/14 01:25:29;;;;;;;;;3.00;3.00;;;;;10.49;77.25;101155.09;5077115;27;45409;-59
2023/01/14 01:27:56;;;;;;;;;8.25;5.00;;;;;10.48;78.46;101161.34;5081211;27;45457;-59
2023/01/14 01:30:22;;;;;;;;;8.00;3.50;;;;;10.47;78.19;101159.63;5077649;27;45478;-59
2023/01/14 01:32:48;;;;;;;;;4.50;4.50;;;;;10.45;79.26;101156.19;5076689;27;46126;-60
2023/01/14 01:35:14;;;;;;;;;7.00;2.00;;;;;10.49;79.04;101157.75;5076884;27;45290;-59
2023/01/14 01:37:39;;;;;;;;;6.00;3.00;;;;;10.55;78.78;101165.47;5085897;27;45340;-61
2023/01/14 01:40:06;;;;;;;;;5.00;2.00;;;;;10.58;77.97;101146.69;5090393;27;45218;-58
2023/01/14 01:42:34;;;;;;;;;6.25;2.25;;;;;10.60;78.51;101147.50;5105296;27;45467;-60
2023/01/14 01:45:41;;;;;;;;;3.75;3.00;;;;;10.60;78.15;101149.28;5076219;27;45492;-61
2023/01/14 01:48:31;;;;;;;;;5.00;5.00;;;;;10.57;78.36;101149.44;5078436;27;45446;-60
2023/01/14 01:51:14;;;;;;;;;5.00;4.50;;;;;10.58;78.14;101140.53;5098681;27;45321;-60
2023/01/14 01:53:45;;;;;;;;;8.00;3.67;;;;;10.67;77.61;101160.47;5087747;27;46182;-60
2023/01/14 01:56:14;;;;;;;;;5.00;5.00;;;;;10.69;78.72;101158.63;5116594;27;45438;-59
2023/01/14 01:58:41;;;;;;;;;2.50;2.50;;;;;10.63;79.26;101138.50;5107417;27;45445;-60
2023/01/14 02:01:06;;;;;;;;;3.00;3.00;;;;;10.72;79.91;101154.03;5077135;27;45253;-59
2023/01/14 02:03:43;;;;;;;;;5.00;3.00;;;;;10.69;80.33;101132.03;5077694;27;45477;-59
2023/01/14 02:06:10;;;;;;;;;10.33;5.33;;;;;10.74;80.76;101148.63;5079926;27;45434;-58
2023/01/14 02:08:39;;;;;;;;;5.25;4.75;;;;;10.75;80.99;101137.91;5102310;27;45417;-58
2023/01/14 02:11:25;;;;;;;;;3.50;3.50;;;;;10.69;81.08;101132.03;5096803;27;45501;-59
2023/01/14 02:13:59;;;;;;;;;5.25;3.00;;;;;10.73;81.18;101122.97;5097465;27;45400;-60
2023/01/14 02:16:40;;;;;;;;;3.00;3.00;;;;;10.73;81.05;101117.66;5080472;27;45430;-62
2023/01/14 02:19:35;;;;;;;;;2.25;2.25;;;;;10.74;80.54;101108.72;5076079;27;45490;-59
2023/01/14 02:22:17;;;;;;;;;2.75;2.75;;;;;10.77;81.03;101108.56;5080590;27;45378;-58
2023/01/14 02:25:06;;;;;;;;;3.00;1.67;;;;;10.79;80.77;101091.59;5076062;27;45866;-60
2023/01/14 02:28:00;;;;;;;;;3.25;1.75;;;;;10.82;81.02;101087.94;5076174;27;45318;-59
2023/01/14 02:30:49;;;;;;;;;2.00;2.00;;;;;10.83;81.92;101092.31;5093683;27;45414;-60
2023/01/14 02:33:20;;;;;;;;;2.00;2.00;;;;;10.83;82.63;101081.69;5076545;27;45450;-65
2023/01/14 02:36:00;;;;;;;;;3.00;3.00;;;;;10.84;82.02;101083.41;5104497;27;46274;-59
2023/01/14 02:38:47;;;;;;;;;3.00;3.00;;;;;10.83;82.21;101089.66;5076161;28;45223;-60
2023/01/14 02:44:39;;;;;;;;;2.33;1.00;;;;;10.79;83.29;101075.63;5072757;27;45304;-58
2023/01/14 02:47:16;;;;;;;;;2.33;1.00;;;;;10.85;82.87;101077.13;5089868;27;45315;-58
2023/01/14 02:49:43;;;;;;;;;2.00;2.00;;;;;10.91;82.71;101074.16;5079667;27;45341;-59
2023/01/14 02:52:11;;;;;;;;;1.00;1.00;;;;;10.90;83.55;101072.44;5080180;27;45314;-58
2023/01/14 02:54:37;;;;;;;;;1.33;0.00;;;;;10.92;81.92;101086.53;5080043;27;45290;-59
2023/01/14 02:57:34;;;;;;;;;1.00;1.00;;;;;10.96;81.57;101065.97;5079869;27;45250;-63
2023/01/14 03:00:28;;;;;;;;;2.67;1.00;;;;;10.95;81.17;101059.78;5100003;27;45383;-60
2023/01/14 03:03:16;;;;;;;;;0.00;0.00;;;;;11.02;80.95;101050.53;5098285;27;45341;-60
2023/01/14 03:06:05;;;;;;;;;0.00;0.00;;;;;11.04;80.57;101048.66;5096789;27;45409;-60
2023/01/14 03:08:42;;;;;;;;;6.00;1.00;;;;;11.08;80.09;101042.25;5097559;27;45252;-60
2023/01/14 03:11:09;;;;;;;;;0.33;0.33;;;;;10.95;80.43;101025.19;5079386;27;45600;-60
2023/01/14 03:13:51;;;;;;;;;2.33;1.00;;;;;11.06;80.32;101041.44;5079103;27;45345;-59
2023/01/14 03:16:32;;;;;;;;;2.00;1.00;;;;;11.11;79.64;101028.78;5098921;27;45383;-60
2023/01/14 03:19:06;;;;;;;;;7.33;1.67;;;;;11.15;79.15;101018.84;5099279;27;45407;-60
2023/01/14 03:21:37;;;;;;;;;0.33;0.33;;;;;11.12;79.38;101011.88;5079230;27;45453;-60
2023/01/14 03:24:22;;;;;;;;;0.00;0.00;;;;;11.15;79.13;101003.72;5101827;27;45358;-60
2023/01/14 03:26:50;;;;;;;;;3.00;0.00;;;;;11.12;78.13;100993.25;5096406;27;45175;-60
2023/01/14 03:29:30;;;;;;;;;2.33;0.67;;;;;11.12;78.71;100997.69;5081213;27;48208;-60
2023/01/14 03:32:08;;;;;;;;;0.33;0.33;;;;;11.19;77.94;100989.28;5082366;27;45317;-58
2023/01/14 03:34:40;;;;;;;;;2.00;0.67;;;;;11.25;77.50;100984.63;5084035;27;45467;-59
2023/01/14 03:37:09;;;;;;;;;1.33;0.00;;;;;11.23;77.26;100961.59;5086216;27;45448;-60
2023/01/14 03:39:35;;;;;;;;;3.00;1.00;;;;;11.27;76.98;100962.28;5087391;27;45469;-63
2023/01/14 03:42:20;;;;;;;;;2.67;0.00;;;;;11.28;77.11;100953.34;5097093;27;45553;-60
2023/01/14 03:44:57;;;;;;;;;2.00;1.00;;;;;11.28;76.77;100944.50;5078117;28;45366;-59
2023/01/14 03:47:26;;;;;;;;;1.00;1.00;;;;;11.28;76.77;100949.81;5088580;27;45518;-60
2023/01/14 03:49:52;;;;;;;;;1.67;0.00;;;;;11.12;76.98;100929.34;5100110;27;46217;-60
2023/01/14 03:52:20;;;;;;;;;1.00;1.00;;;;;11.08;76.91;100917.16;5098636;27;45371;-58
2023/01/14 03:55:02;;;;;;;;;6.33;0.33;;;;;11.29;77.07;100940.91;5115490;27;45560;-59
2023/01/14 03:58:00;;;;;;;;;2.00;1.00;;;;;11.36;76.17;100936.97;5092251;27;46575;-59
2023/01/14 04:00:35;;;;;;;;;1.00;1.00;;;;;11.37;76.19;100930.72;5078913;28;45427;-58
2023/01/14 04:03:05;;;;;;;;;1.00;1.00;;;;;11.40;76.27;100938.53;5078494;27;45455;-59
2023/01/14 04:05:31;;;;;;;;;0.00;0.00;;;;;11.41;75.96;100929.59;5078829;27;45255;-58
2023/01/14 04:08:00;;;;;;;;;1.00;1.00;;;;;11.45;75.92;100926.66;5082617;27;45558;-58
2023/01/14 04:10:25;;;;;;;;;2.00;1.00;;;;;11.46;75.77;100911.56;5078733;27;45382;-59
2023/01/14 04:15:35;;;;;;;;;1.33;1.00;;;;;11.43;75.87;100898.41;5098963;27;45444;-60
2023/01/14 04:18:00;;;;;;;;;2.00;1.00;;;;;11.48;75.67;100885.72;5078611;27;45566;-59
2023/01/14 04:20:26;;;;;;;;;3.33;2.00;;;;;11.47;75.89;100871.53;5096736;27;46184;-59
2023/01/14 04:22:51;;;;;;;;;0.00;0.00;;;;;11.52;76.16;100865.94;5098979;27;45328;-58
2023/01/14 04:25:16;;;;;;;;;0.00;0.00;;;;;11.50;75.74;100867.84;5086079;27;58831;-59
2023/01/14 04:27:42;;;;;;;;;4.00;1.67;;;;;11.50;75.57;100865.19;5079046;27;45428;-59
2023/01/14 04:30:08;;;;;;;;;1.00;0.00;;;;;11.47;75.82;100855.56;5081693;27;46180;-59
2023/01/14 04:32:33;;;;;;;;;0.67;0.67;;;;;11.50;75.97;100854.53;5080628;27;45349;-57
2023/01/14 04:34:59;;;;;;;;;1.00;1.00;;;;;11.52;75.87;100856.16;5078018;27;45875;-58
2023/01/14 04:37:24;;;;;;;;;3.33;1.00;;;;;11.51;76.04;100856.25;5094685;27;45341;-59
2023/01/14 04:39:51;;;;;;;;;3.67;1.00;;;;;11.39;76.08;100848.94;5095631;27;45480;-59
2023/01/14 04:42:26;;;;;;;;;0.00;0.00;;;;;11.43;76.33;100861.13;5093689;27;45297;-59
2023/01/14 04:44:56;;;;;;;;;2.67;2.00;;;;;11.50;75.72;100854.53;5082032;27;45297;-60
2023/01/14 04:47:23;;;;;;;;;2.00;2.00;;;;;11.47;75.91;100849.38;5078130;27;45396;-59
2023/01/14 04:49:48;;;;;;;;;3.00;2.00;;;;;11.50;75.82;100852.72;5077514;27;45390;-58
2023/01/14 04:52:14;;;;;;;;;2.33;1.00;;;;;11.55;75.53;100852.44;5079522;27;45372;-60
2023/01/14 04:54:39;;;;;;;;;1.67;1.67;;;;;11.47;75.85;100838.72;5079129;27;45242;-60
2023/01/14 04:57:05;;;;;;;;;1.00;1.00;;;;;11.49;75.38;100852.81;5079249;27;45551;-60
2023/01/14 04:59:30;;;;;;;;;2.00;2.00;;;;;11.39;76.18;100820.50;5077273;27;45410;-59
2023/01/14 05:01:56;;;;;;;;;4.00;2.00;;;;;11.52;75.59;100820.66;5094897;27;45371;-59
2023/01/14 05:04:21;;;;;;;;;4.67;2.00;;;;;11.49;75.64;100804.88;5093806;27;45312;-59
2023/01/14 05:06:47;;;;;;;;;7.67;3.00;;;;;11.58;75.59;100809.66;5096769;27;45653;-59
2023/01/14 05:09:12;;;;;;;;;8.00;1.00;;;;;11.54;75.52;100797.47;5096934;27;45449;-60
2023/01/14 05:11:40;;;;;;;;;2.00;1.00;;;;;11.61;75.21;100798.84;5097080;27;45466;-59
2023/01/14 05:14:05;;;;;;;;;1.33;0.00;;;;;11.64;75.04;100811.13;5092561;27;45905;-63
2023/01/14 05:16:31;;;;;;;;;2.33;0.67;;;;;11.60;75.07;100801.59;5097772;27;52034;-59
2023/01/14 05:18:56;;;;;;;;;2.00;2.00;;;;;11.58;74.85;100801.66;5087723;27;47021;-59
2023/01/14 05:21:22;;;;;;;;;1.00;1.00;;;;;11.62;75.17;100789.91;5078364;27;45399;-59
2023/01/14 05:23:48;;;;;;;;;4.33;1.00;;;;;11.58;74.42;100783.00;5081221;27;45424;-60
2023/01/14 05:26:14;;;;;;;;;9.33;2.00;;;;;11.60;74.22;100796.28;5079817;27;45646;-60
2023/01/14 05:28:39;;;;;;;;;2.00;1.00;;;;;11.62;74.23;100779.25;5078487;27;45663;-61
2023/01/14 05:31:05;;;;;;;;;3.00;1.00;;;;;11.56;74.05;100774.25;5077969;27;45226;-60
2023/01/14 05:33:31;;;;;;;;;2.33;1.00;;;;;11.55;74.05;100767.22;5081701;27;45367;-60
2023/01/14 05:35:58;;;;;;;;;1.67;0.00;;;;;11.50;74.24;100753.31;5100949;27;45652;-60
2023/01/14 05:38:24;;;;;;;;;2.00;0.33;;;;;11.47;74.03;100746.38;5097876;27;45491;-59
2023/01/14 05:40:50;;;;;;;;;1.00;1.00;;;;;11.50;74.11;100732.00;5084588;27;45431;-60
2023/01/14 05:46:08;;;;;;;;;2.00;0.00;;;;;11.57;74.08;100733.34;5080871;27;45599;-60
2023/01/14 05:48:34;;;;;;;;;3.33;0.67;;;;;11.57;73.79;100720.03;5082251;27;45939;-60
2023/01/14 05:51:01;;;;;;;;;0.67;0.33;;;;;11.57;73.82;100724.50;5096140;27;45578;-60
2023/01/14 05:53:27;;;;;;;;;0.33;0.33;;;;;11.53;73.89;100710.53;5104940;27;45421;-60
2023/01/14 05:55:54;;;;;;;;;2.00;0.00;;;;;11.59;74.10;100719.94;5092784;27;45596;-60
2023/01/14 05:58:20;;;;;;;;;3.67;2.00;;;;;11.52;74.37;100692.81;5113339;27;45291;-60
2023/01/14 06:06:35;;;;;;;;;3.00;1.00;;;;;11.41;74.25;100681.94;5077491;27;45409;-58
2023/01/14 06:09:10;;;;;;;;;1.33;0.00;;;;;11.35;74.47;100675.16;5086505;27;45380;-60
2023/01/14 06:11:38;;;;;;;;;1.00;0.00;;;;;11.33;74.73;100681.50;5096550;27;45402;-60
2023/01/14 06:14:03;;;;;;;;;5.33;0.67;;;;;11.38;74.69;100684.78;5076855;27;45303;-59
2023/01/14 06:16:38;;;;;;;;;3.00;0.00;;;;;11.32;74.02;100658.50;5076695;27;45616;-59
2023/01/14 06:19:04;;;;;;;;;0.67;0.00;;;;;11.40;73.75;100656.25;5077400;27;46436;-59
2023/01/14 06:21:30;;;;;;;;;0.00;0.00;;;;;11.46;73.47;100658.56;5076562;28;45433;-60
2023/01/14 06:23:57;;;;;;;;;1.00;0.00;;;;;11.40;73.63;100653.59;5076834;27;45588;-60
2023/01/14 06:26:27;;;;;;;;;7.00;1.00;;;;;11.34;73.78;100660.16;5077697;27;45563;-61
2023/01/14 06:29:01;;;;;;;;;2.00;0.33;;;;;11.39;73.71;100659.88;5089293;27;46950;-59
2023/01/14 06:31:27;;;;;;;;;0.00;0.00;;;;;11.43;73.37;100658.72;5094408;27;45264;-60
2023/01/14 06:33:55;;;;;;;;;1.00;1.00;;;;;11.44;73.38;100663.09;5092031;27;45521;-59
2023/01/14 06:36:21;;;;;;;;;2.00;0.00;;;;;11.41;73.22;100639.31;5085750;27;45385;-59
2023/01/14 06:38:47;;;;;;;;;1.00;0.00;;;;;11.43;73.24;100646.28;5094416;27;45368;-60
2023/01/14 06:41:12;;;;;;;;;1.00;1.00;;;;;11.42;73.93;100625.91;5096110;27;45452;-60
2023/01/14 06:43:42;;;;;;;;;0.33;0.33;;;;;11.47;73.70;100617.69;5095653;27;45405;-59
2023/01/14 06:46:12;;;;;;;;;2.67;1.00;;;;;11.40;74.16;100605.66;5095830;27;45471;-58
2023/01/14 06:48:39;;;;;;;;;0.00;0.00;;;;;11.44;73.96;100607.19;5096502;27;45895;-60
2023/01/14 06:51:15;;;;;;;;;0.00;0.00;;;;;11.48;73.63;100611.41;5090476;27;45242;-59
2023/01/14 06:53:41;;;;;;;;;3.33;1.00;;;;;11.49;74.11;100607.78;5111533;27;45409;-60
2023/01/14 06:56:09;;;;;;;;;0.00;0.00;;;;;11.46;73.91;100613.31;5078821;27;45246;-62
2023/01/14 06:58:35;;;;;;;;;0.00;0.00;;;;;11.49;74.00;100613.97;5077942;27;45610;-60
2023/01/14 07:01:05;;;;;;;;;2.00;0.33;;;;;11.51;73.78;100595.22;5089485;27;45277;-60
2023/01/14 07:03:31;;;;;;;;;1.00;1.00;;;;;11.49;74.02;100599.78;5096743;27;45318;-59
2023/01/14 07:05:59;;;;;;;;;1.33;1.33;;;;;11.51;73.95;100601.41;5095044;27;45274;-62
2023/01/14 07:08:24;;;;;;;;;1.00;0.00;;;;;11.49;73.72;100566.03;5078578;28;45433;-60
2023/01/14 07:10:51;;;;;;;;;2.33;0.33;;;;;11.61;73.57;100591.06;5080464;27;45456;-60
2023/01/14 07:13:18;;;;;;;;;1.67;1.67;;;;;11.63;73.73;100589.16;5093089;27;45438;-59
2023/01/14 07:15:44;;;;;;;;;0.67;0.67;;;;;11.54;73.97;100571.06;5096650;27;45309;-59
2023/01/14 07:18:11;;;;;;;;;3.33;1.00;;;;;11.60;74.60;100583.19;5094601;27;45578;-60
2023/01/14 07:20:36;;;;;;;;;1.67;1.67;;;;;11.58;74.17;100593.91;5095908;27;45327;-60
2023/01/14 07:23:02;;;;;;;;;1.00;1.00;;;;;11.55;74.27;100575.44;5091367;27;45374;-59
2023/01/14 07:25:27;;;;;;;;;0.00;0.00;;;;;11.40;74.67;100561.25;5096163;27;45645;-59
2023/01/14 07:27:53;;;;;;;;;1.00;1.00;;;;;11.53;75.05;100561.38;5094661;27;47102;-58
2023/01/14 07:30:18;;;;;;;;;0.00;0.00;;;;;11.55;75.08;100554.13;5101417;27;45393;-59
2023/01/14 07:32:44;;;;;;;;;3.67;1.00;;;;;11.50;75.16;100542.91;5097942;27;45612;-60
2023/01/14 07:35:09;;;;;;;;;1.00;1.00;;;;;11.44;75.18;100517.50;5112951;27;45607;-59
2023/01/14 07:37:34;;;;;;;;;2.00;1.00;;;;;11.58;74.80;100527.31;5115296;27;46358;-59
2023/01/14 07:40:00;;;;;;;;;1.00;1.00;;;;;11.60;74.75;100508.59;5101892;27;45475;-60
2023/01/14 07:42:26;;;;;;;;;2.00;0.00;;;;;11.59;75.18;100513.06;5099913;27;45309;-60
2023/01/14 07:44:51;;;;;;;;;1.00;0.00;;;;;11.58;75.79;100524.66;5088167;27;45533;-59
2023/01/14 07:47:17;;;;;;;;;0.67;0.67;;;;;11.56;75.55;100510.56;5095537;27;48111;-61
2023/01/14 07:49:43;;;;;;;;;0.67;0.67;;;;;11.61;75.39;100519.16;5091631;27;45488;-60
2023/01/14 07:52:14;;;;;;;;;0.33;0.33;;;;;11.57;75.46;100520.28;5078409;27;45356;-61
2023/01/14 07:54:43;;;;;;;;;1.00;1.00;;;;;11.57;75.35;100530.91;5081983;27;45326;-60
2023/01/14 07:57:10;;;;;;;;;0.67;0.67;;;;;11.60;75.44;100498.78;5077251;28;45429;-62
2023/01/14 07:59:37;;;;;;;;;0.33;0.00;;;;;11.44;75.77;100488.19;5078561;27;45230;-59
2023/01/14 08:02:04;;;;;;;;;0.67;0.67;;;;;11.55;75.77;100506.19;5078724;27;45290;-61
2023/01/14 08:04:29;;;;;;;;;0.00;0.00;;;;;11.56;76.26;100504.38;5079117;27;45602;-59
2023/01/14 08:06:58;;;;;;;;;2.33;1.33;;;;;11.60;75.54;100504.13;5082110;27;45483;-59
2023/01/14 08:09:24;;;;;;;;;3.33;2.67;;;;;11.44;76.58;100492.69;5078692;27;45437;-60
2023/01/14 08:11:49;;;;;;;;;0.00;0.00;;;;;11.59;76.27;100506.84;5077954;27;45208;-58
2023/01/14 08:14:15;;;;;;;;;0.67;0.67;;;;;11.59;76.07;100489.09;5083901;27;45261;-61
2023/01/14 08:16:40;;;;;;;;;0.00;0.00;;;;;11.55;76.80;100484.88;5107523;27;50439;-58
2023/01/14 08:19:05;;;;;;;;;1.67;1.67;;;;;11.48;77.46;100479.09;5100081;27;45325;-59
2023/01/14 08:21:31;;;;;;;;;2.00;1.00;;;;;11.56;77.41;100477.75;5084157;27;45502;-58
2023/01/14 08:23:56;;;;;;;;;1.33;1.00;;;;;11.56;77.06;100475.94;5105595;27;45616;-60
2023/01/14 08:26:21;;;;;;;;;2.00;0.00;;;;;11.57;76.62;100469.66;5116166;27;45957;-58
2023/01/14 08:28:47;;;;;;;;;1.00;1.00;;;;;11.57;77.06;100476.78;5094432;27;45459;-59
2023/01/14 08:31:15;;;;;;;;;2.00;0.33;;;;;11.45;77.47;100470.41;5098659;27;45314;-58
2023/01/14 08:33:42;;;;;;;;;0.33;0.33;;;;;11.48;78.45;100464.94;5086511;27;47371;-61
2023/01/14 08:36:15;;;;;;;;;1.00;1.00;;;;;11.46;78.47;100458.84;5092320;27;46096;-59
2023/01/14 08:38:46;;;;;;;;;1.00;1.00;;;;;11.51;77.53;100467.41;5086141;27;45443;-61
2023/01/14 08:41:14;;;;;;;;;0.00;0.00;;;;;11.53;78.21;100465.50;5087460;27;45539;-59
2023/01/14 08:43:41;;;;;;;;;2.67;1.00;;;;;11.51;77.99;100468.25;5088928;27;45615;-59
2023/01/14 08:46:08;;;;;;;;;1.00;0.00;;;;;11.56;77.83;100464.44;5084690;27;45541;-65
2023/01/14 08:48:35;;;;;;;;;1.33;0.00;;;;;11.57;78.05;100461.66;5093530;27;47099;-60
2023/01/14 08:51:05;;;;;;;;;2.33;1.00;;;;;11.57;78.33;100455.50;5081799;27;46886;-60
2023/01/14 08:53:32;;;;;;;;;2.00;2.00;;;;;11.69;77.48;100431.59;5079559;27;45382;-60
2023/01/14 08:55:59;;;;;;;;;1.00;1.00;;;;;11.68;77.66;100443.22;5095261;27;45440;-63
2023/01/14 08:58:25;;;;;;;;;2.00;1.00;;;;;11.67;77.28;100438.00;5091664;27;45879;-59
2023/01/14 09:00:59;;;;;;;;;1.00;0.00;;;;;11.61;78.50;100441.06;5083078;27;45679;-64
2023/01/14 09:03:25;;;;;;;;;1.00;0.67;;;;;11.68;77.92;100443.22;5091506;27;46083;-57
2023/01/14 09:05:58;;;;;;;;;1.00;1.00;;;;;11.71;77.93;100432.34;5092786;27;46261;-59
2023/01/14 09:17:06;;;;;;;;;1.33;1.00;;;;;11.86;77.68;100392.44;5085728;27;45806;-60
2023/01/14 09:19:37;;;;;;;;;1.67;0.67;;;;;11.85;77.96;100385.34;5083465;27;45473;-61
2023/01/14 09:22:04;;;;;;;;;2.00;0.00;;;;;11.87;77.65;100400.31;5087669;27;45450;-58
2023/01/14 09:24:30;;;;;;;;;2.00;0.00;;;;;11.82;77.92;100392.59;5090248;27;45563;-60
2023/01/14 09:26:56;;;;;;;;;2.67;1.00;;;;;11.91;78.23;100414.28;5085577;27;45961;-62
2023/01/14 09:29:21;;;;;;;;;2.67;1.00;;;;;11.90;78.15;100386.78;5101240;27;45326;-62
2023/01/14 09:31:46;;;;;;;;;1.33;1.00;;;;;11.87;78.52;100381.66;5100357;27;45495;-65
2023/01/14 09:34:12;;;;;;;;;2.00;0.67;;;;;11.84;78.48;100379.19;5089628;27;45441;-63
2023/01/14 09:36:37;;;;;;;;;0.67;0.67;;;;;11.98;78.61;100381.84;5094119;27;47159;-64
2023/01/14 09:39:03;;;;;;;;;3.00;2.00;;;;;11.98;78.65;100383.59;5096519;27;45250;-60
2023/01/14 09:41:36;;;;;;;;;0.67;0.67;;;;;11.91;79.87;100384.97;5090921;27;45762;-62
2023/01/14 09:44:04;;;;;;;;;1.33;1.00;;;;;12.00;79.22;100387.06;5089022;27;47037;-62
2023/01/14 09:46:31;;;;;;;;;0.00;0.00;;;;;11.92;79.72;100360.03;5091126;27;47147;-61
2023/01/14 09:49:01;;;;;;;;;1.00;1.00;;;;;11.96;79.43;100369.53;5087867;27;45471;-61
2023/01/14 09:51:44;;;;;;;;;0.00;0.00;;;;;11.97;79.45;100356.09;5089445;27;45408;-60
2023/01/14 09:54:20;;;;;;;;;1.00;0.00;;;;;12.04;78.40;100360.09;5091706;27;45676;-59
2023/01/14 09:57:17;;;;;;;;;1.00;1.00;;;;;12.11;78.40;100360.56;5087078;27;45515;-63
2023/01/14 09:59:55;;;;;;;;;0.00;0.00;;;;;12.11;78.25;100360.56;5083057;27;45462;-59
2023/01/14 10:02:26;;;;;;;;;0.00;0.00;;;;;12.08;78.32;100350.06;5090594;27;45483;-59
2023/01/14 10:05:17;;;;;;;;;0.00;0.00;;;;;12.17;78.15;100354.81;5090708;27;45355;-60
2023/01/14 10:07:43;;;;;;;;;1.00;1.00;;;;;12.22;77.93;100363.34;5112052;27;45432;-58
2023/01/14 10:10:32;;;;;;;;;1.00;1.00;;;;;12.23;77.68;100338.38;5098298;27;45291;-54
2023/01/14 10:13:06;;;;;;;;;1.00;0.33;;;;;12.27;78.08;100342.59;5093141;27;45387;-64
2023/01/14 10:15:41;;;;;;;;;1.00;1.00;;;;;12.25;78.20;100347.16;5093598;27;45451;-58
2023/01/14 10:18:33;;;;;;;;;2.00;0.67;;;;;12.24;78.05;100350.78;5100239;27;47678;-58
2023/01/14 10:21:02;;;;;;;;;3.33;1.00;;;;;12.23;78.45;100327.72;5089647;27;45329;-58
2023/01/14 10:23:32;;;;;;;;;0.00;0.00;;;;;12.33;77.87;100325.31;5096452;27;45565;-58
2023/01/14 10:25:58;;;;;;;;;0.00;0.00;;;;;12.47;77.69;100316.38;5089112;27;45433;-59
2023/01/14 10:28:28;;;;;;;;;2.00;2.00;;;;;12.36;77.15;100293.94;5082917;27;46187;-60
2023/01/14 10:30:58;;;;;;;;;2.00;0.00;;;;;12.55;77.11;100314.88;5087667;27;45500;-63
2023/01/14 10:33:23;;;;;;;;;0.00;0.00;;;;;12.51;77.38;100299.22;5077023;27;45715;-59
2023/01/14 10:35:54;;;;;;;;;1.00;1.00;;;;;12.53;81.12;100315.97;5091851;27;45349;-58
2023/01/14 10:38:26;;;;;;;;;1.00;1.00;;;;;12.67;78.90;100316.72;5081047;27;45681;-56
2023/01/14 10:40:55;;;;;;;;;0.00;0.00;;;;;12.84;77.16;100318.19;5103675;27;45746;-52
2023/01/14 10:43:42;;;;;;;;;1.67;1.00;;;;;12.83;76.19;100300.50;5088814;27;45458;-57
2023/01/14 10:46:21;;;;;;;;;4.00;1.00;;;;;12.78;76.62;100302.63;5092349;27;45353;-59
2023/01/14 10:48:50;;;;;;;;;0.33;0.33;;;;;12.68;77.67;100283.72;5089207;27;45402;-59
2023/01/14 10:51:35;;;;;;;;;0.33;0.33;;;;;12.62;77.83;100293.97;5112194;27;45270;-60
2023/01/14 10:54:11;;;;;;;;;2.00;1.00;;;;;12.61;78.10;100289.59;5080832;27;45227;-59
2023/01/14 10:56:41;;;;;;;;;0.00;0.00;;;;;12.62;78.41;100293.97;5076836;28;45421;-59
2023/01/14 10:59:31;;;;;;;;;1.00;1.00;;;;;12.59;78.63;100275.50;5079373;27;45455;-60
2023/01/14 11:01:56;;;;;;;;;3.00;1.00;;;;;12.60;78.63;100277.22;5074247;27;45291;-59
2023/01/14 11:04:27;;;;;;;;;0.00;0.00;;;;;12.57;78.66;100280.94;5077888;27;45325;-58
2023/01/14 11:06:53;;;;;;;;;0.00;0.00;;;;;12.50;79.58;100281.47;5079489;27;45362;-60
2023/01/14 11:09:26;;;;;;;;;1.00;1.00;;;;;12.33;79.31;100238.16;5086968;27;45600;-61
2023/01/14 11:11:52;;;;;;;;;1.00;1.00;;;;;12.51;80.19;100253.88;5098305;27;45437;-58
2023/01/14 11:14:37;;;;;;;;;1.00;1.00;;;;;12.49;79.78;100247.75;5094847;27;45393;-59
2023/01/14 11:17:21;;;;;;;;;0.67;0.67;;;;;12.45;79.19;100224.94;5078305;28;45463;-58
2023/01/14 11:19:47;;;;;;;;;1.67;1.00;;;;;12.47;79.23;100213.19;5078518;27;46360;-60
2023/01/14 11:22:13;;;;;;;;;2.00;2.00;;;;;12.53;79.46;100228.78;5099520;27;45419;-59
2023/01/14 11:24:43;;;;;;;;;2.33;1.33;;;;;12.55;79.70;100234.00;5099185;27;45365;-59
2023/01/14 11:27:24;;;;;;;;;1.00;1.00;;;;;12.53;78.98;100218.13;5079841;27;45295;-60
2023/01/14 11:29:56;;;;;;;;;1.00;1.00;;;;;12.58;79.50;100217.78;5079769;27;45401;-59
2023/01/14 11:32:35;;;;;;;;;4.00;2.00;;;;;12.55;79.18;100200.19;5080332;27;45520;-58
2023/01/14 11:35:03;;;;;;;;;4.00;2.00;;;;;12.53;79.18;100179.91;5078718;27;45238;-59
2023/01/14 11:37:36;;;;;;;;;4.00;2.00;;;;;12.59;79.24;100172.31;5096124;27;45452;-60
2023/01/14 11:40:04;;;;;;;;;4.67;3.00;;;;;12.52;79.95;100173.72;5098228;27;46626;-62
2023/01/14 11:42:31;;;;;;;;;2.00;2.00;;;;;12.54;80.01;100186.97;5083876;27;45561;-61
2023/01/14 11:45:03;;;;;;;;;1.00;1.00;;;;;12.47;80.52;100172.34;5078227;28;45479;-62
2023/01/14 11:47:29;;;;;;;;;1.67;1.67;;;;;12.55;80.46;100175.31;5079329;27;45285;-59
2023/01/14 11:50:31;;;;;;;;;3.00;3.00;;;;;12.49;80.98;100167.75;5077852;28;46019;-59
2023/01/14 11:53:02;;;;;;;;;2.00;2.00;;;;;12.53;81.75;100169.25;5088858;27;47527;-59
2023/01/14 11:55:30;;;;;;;;;1.33;1.33;;;;;12.55;80.31;100157.50;5080391;27;45287;-60
2023/01/14 11:58:22;;;;;;;;;1.67;1.67;;;;;12.51;81.08;100134.69;5082457;27;45473;-59
2023/01/14 12:01:18;;;;;;;;;3.33;2.00;;;;;12.57;80.78;100149.41;5077850;27;45468;-58
2023/01/14 12:03:52;;;;;;;;;1.00;1.00;;;;;12.56;80.42;100139.69;5081476;27;45418;-63